Time;durP1;ratioP1;P1;durP2;ratioP2;P2;SDS_P1;SDS_P2;PMS_P1;PMS_P2;Temp;Humidity;BMP_temperature;BMP_pressure;BME280_temperature;BME280_humidity;BME280_pressure;Samples;Min_cycle;Max_cycle;Signal;HPM_P1;HPM_P2
2022/01/04 00:01:32;;;;;;;12.40;5.80;;;;;;;2.79;88.12;98356.70;447439;1271;142013;-65
2022/01/04 00:11:46;;;;;;;8.10;4.40;;;;;;;2.55;88.33;98354.64;446768;1270;142378;-65
2022/01/04 00:21:53;;;;;;;8.50;4.00;;;;;;;2.42;88.89;98341.13;440968;1270;141989;-66
2022/01/04 00:31:59;;;;;;;9.70;5.60;;;;;;;2.46;89.50;98334.54;432222;1270;141576;-63
2022/01/04 00:42:06;;;;;;;13.40;5.00;;;;;;;2.44;89.81;98328.79;439668;1270;145098;-66
2022/01/04 00:52:16;;;;;;;9.80;4.70;;;;;;;2.44;90.04;98320.35;447191;1272;141316;-65
2022/01/04 01:02:22;;;;;;;10.20;5.40;;;;;;;2.36;90.11;98316.92;445719;1271;153850;-64
2022/01/04 01:12:28;;;;;;;8.50;4.70;;;;;;;2.31;90.40;98309.37;445884;1273;142093;-66
2022/01/04 01:22:34;;;;;;;8.00;4.30;;;;;;;2.42;90.92;98295.88;439963;1271;142607;-65
2022/01/04 01:32:40;;;;;;;9.30;4.50;;;;;;;2.79;91.23;98289.11;444536;1271;141661;-65
2022/01/04 01:42:46;;;;;;;8.50;4.20;;;;;;;3.22;91.26;98305.91;428786;1271;142126;-64
2022/01/04 01:52:53;;;;;;;7.40;4.50;;;;;;;3.48;90.97;98281.11;438095;1270;141697;-65
2022/01/04 02:02:59;;;;;;;6.60;4.90;;;;;;;3.63;90.65;98262.10;447391;1271;142022;-66
2022/01/04 02:13:06;;;;;;;7.70;5.50;;;;;;;3.80;90.57;98250.06;447411;1271;141285;-66
2022/01/04 02:23:11;;;;;;;8.90;5.20;;;;;;;3.83;90.17;98237.08;447436;1270;141509;-66
2022/01/04 02:33:18;;;;;;;10.70;5.60;;;;;;;3.59;89.89;98231.71;435134;1271;141842;-64
2022/01/04 02:43:23;;;;;;;7.20;5.30;;;;;;;3.61;90.48;98236.92;447381;1271;142325;-64
2022/01/04 02:53:29;;;;;;;10.40;6.80;;;;;;;3.61;90.12;98223.10;447391;1270;141448;-64
2022/01/04 03:03:35;;;;;;;11.00;6.70;;;;;;;3.58;90.26;98214.45;442956;1270;142510;-64
2022/01/04 03:13:41;;;;;;;9.50;5.90;;;;;;;3.73;90.54;98198.20;447402;1271;142326;-65
2022/01/04 03:23:47;;;;;;;7.40;4.60;;;;;;;3.87;90.67;98193.20;447382;1270;142029;-65
2022/01/04 03:33:53;;;;;;;6.10;5.10;;;;;;;4.04;90.69;98168.20;446662;1270;141996;-65
2022/01/04 03:43:58;;;;;;;10.70;6.60;;;;;;;4.12;90.91;98154.85;447448;1271;141612;-64
2022/01/04 03:54:04;;;;;;;8.20;5.80;;;;;;;4.22;90.98;98140.39;438083;1270;141900;-68
2022/01/04 04:04:11;;;;;;;9.00;5.30;;;;;;;4.34;91.05;98135.01;442424;1271;141168;-64
2022/01/04 04:14:17;;;;;;;7.30;5.60;;;;;;;4.38;91.10;98129.56;438400;1271;141227;-65
2022/01/04 04:24:44;;;;;;;8.60;5.90;;;;;;;4.46;91.34;98113.65;440183;1273;142140;-64
2022/01/04 04:34:50;;;;;;;9.50;5.90;;;;;;;4.51;91.43;98113.71;443359;1271;142207;-64
2022/01/04 04:44:56;;;;;;;6.60;5.40;;;;;;;4.40;90.65;98104.13;438295;1271;140631;-64
2022/01/04 04:55:01;;;;;;;7.10;5.80;;;;;;;4.18;90.96;98097.70;439878;1270;142712;-65
2022/01/04 05:05:09;;;;;;;10.60;5.50;;;;;;;4.01;90.87;98081.94;444139;1271;141300;-66
2022/01/04 05:15:15;;;;;;;10.10;5.20;;;;;;;3.91;91.27;98075.09;446691;1271;141933;-65
2022/01/04 05:25:21;;;;;;;9.60;6.10;;;;;;;3.93;91.41;98070.11;447378;1271;141026;-65
2022/01/04 05:35:27;;;;;;;11.60;7.00;;;;;;;4.04;91.47;98062.69;447258;1271;142285;-66
2022/01/04 05:45:33;;;;;;;15.40;7.50;;;;;;;3.98;91.25;98052.01;446607;1271;142534;-66
2022/01/04 05:55:39;;;;;;;7.20;5.80;;;;;;;3.86;91.37;98038.49;440677;1270;142580;-65
2022/01/04 06:05:44;;;;;;;8.30;5.30;;;;;;;3.78;91.73;98046.23;441962;1271;141843;-64
2022/01/04 06:15:50;;;;;;;8.30;5.30;;;;;;;3.81;91.57;98043.31;446147;1271;143922;-65
2022/01/04 06:25:56;;;;;;;8.80;6.30;;;;;;;3.89;91.83;98033.48;447274;1271;141875;-63
2022/01/04 06:36:02;;;;;;;10.80;6.50;;;;;;;4.01;91.83;98025.63;447434;1270;141302;-65
2022/01/04 06:46:10;;;;;;;7.30;4.80;;;;;;;4.07;91.58;98023.01;435967;1270;141209;-68
2022/01/04 06:56:17;;;;;;;6.60;5.50;;;;;;;4.10;91.68;98013.87;433842;1271;141895;-64
2022/01/04 07:06:23;;;;;;;9.60;5.70;;;;;;;4.14;91.56;97999.20;440846;1271;143325;-65
2022/01/04 07:16:29;;;;;;;7.40;5.00;;;;;;;4.23;91.48;97992.27;442241;1270;141247;-64
2022/01/04 07:26:35;;;;;;;9.50;7.10;;;;;;;4.34;91.45;97984.48;442923;1270;142465;-63
2022/01/04 07:36:41;;;;;;;6.80;5.40;;;;;;;4.47;91.64;97981.73;429859;1270;141432;-65
2022/01/04 07:46:47;;;;;;;6.30;5.00;;;;;;;4.56;91.59;97963.11;447353;1269;141379;-65
2022/01/04 07:56:53;;;;;;;8.40;6.40;;;;;;;4.64;91.88;97948.70;447255;1271;141306;-63
2022/01/04 08:06:59;;;;;;;10.60;7.50;;;;;;;4.72;91.71;97921.48;446546;1270;140654;-64
2022/01/04 08:17:05;;;;;;;14.40;10.40;;;;;;;4.86;91.57;97896.48;437438;1271;141402;-65
2022/01/04 08:27:11;;;;;;;14.50;10.50;;;;;;;4.99;91.14;97871.15;446587;1270;142012;-63
2022/01/04 08:37:18;;;;;;;12.40;8.70;;;;;;;5.13;91.13;97854.80;440117;1270;141831;-60
2022/01/04 08:47:25;;;;;;;19.10;11.50;;;;;;;5.29;90.75;97832.87;444353;1270;141643;-72
2022/01/04 08:57:32;;;;;;;11.90;7.40;;;;;;;5.87;90.52;97807.37;446743;1270;142139;-68
2022/01/04 09:07:38;;;;;;;8.80;6.10;;;;;;;6.42;89.61;97794.31;447418;1271;141433;-62
2022/01/04 09:28:07;;;;;;;8.30;4.70;;;;;;;6.55;88.36;97793.19;435923;1270;141175;-62
2022/01/04 09:38:14;;;;;;;7.70;5.30;;;;;;;6.43;88.11;97773.73;433779;1271;153120;-62
2022/01/04 09:48:20;;;;;;;7.90;5.90;;;;;;;6.39;87.98;97762.08;446223;1271;141348;-62
2022/01/04 09:58:27;;;;;;;11.40;7.60;;;;;;;6.35;87.95;97745.02;444633;1270;141264;-58
2022/01/04 10:08:33;;;;;;;12.90;8.20;;;;;;;6.43;87.94;97719.17;447344;1270;143428;-55
2022/01/04 10:18:39;;;;;;;11.30;7.20;;;;;;;6.57;87.70;97713.42;436288;1271;141865;-58
2022/01/04 10:28:47;;;;;;;11.10;7.50;;;;;;;6.63;87.62;97699.95;438582;1270;141331;-60
2022/01/04 10:38:53;;;;;;;8.80;5.60;;;;;;;6.64;87.42;97684.89;442911;1270;142381;-61
2022/01/04 10:48:59;;;;;;;9.90;6.70;;;;;;;6.64;87.36;97670.80;445574;1270;141869;-60
2022/01/04 10:59:07;;;;;;;11.20;6.70;;;;;;;6.68;87.56;97650.14;447332;1270;142226;-66
2022/01/04 11:09:13;;;;;;;11.80;7.40;;;;;;;6.66;87.58;97626.45;446702;1270;141905;-64
2022/01/04 11:19:21;;;;;;;10.30;8.60;;;;;;;6.68;87.71;97610.50;447406;1270;141566;-64
2022/01/04 11:29:34;;;;;;;8.10;6.80;;;;;;;6.65;87.90;97594.22;440289;1268;141315;-63
2022/01/04 11:39:40;;;;;;;12.10;7.00;;;;;;;6.57;88.16;97567.69;446447;1270;141758;-69
2022/01/04 11:50:13;;;;;;;10.30;7.70;;;;;;;6.60;88.35;97544.69;447256;1270;142157;-63
2022/01/04 12:00:28;;;;;;;15.80;8.80;;;;;;;6.67;88.58;97515.48;446334;1270;141274;-71
2022/01/04 12:10:43;;;;;;;16.90;10.40;;;;;;;6.71;88.73;97489.56;447406;1269;141595;-62
2022/01/04 12:20:53;;;;;;;12.00;9.30;;;;;;;6.75;88.81;97453.27;447143;1270;142663;-59
2022/01/04 12:31:26;;;;;;;14.80;8.20;;;;;;;6.72;88.89;97420.50;446143;1270;184809;-62
2022/01/04 12:41:35;;;;;;;10.30;7.90;;;;;;;6.65;89.05;97400.53;446991;1271;142188;-63
2022/01/04 12:51:44;;;;;;;12.70;9.10;;;;;;;6.62;89.21;97383.78;446587;1270;141543;-61
2022/01/04 13:01:51;;;;;;;16.10;11.30;;;;;;;6.63;89.25;97377.27;445099;1271;221974;-61
2022/01/04 13:11:57;;;;;;;;;;;;;;;6.63;89.48;97349.15;429752;1271;141457;-64
2022/01/04 13:22:07;;;;;;;21.70;16.40;;;;;;;6.69;89.60;97347.18;446149;1271;128950;-73
2022/01/04 13:32:13;;;;;;;13.60;9.20;;;;;;;6.71;89.46;97336.89;431655;1273;142157;-62
2022/01/04 13:42:40;;;;;;;12.20;9.60;;;;;;;6.65;89.50;97319.19;439701;1270;144173;-61
2022/01/04 13:52:59;;;;;;;12.30;9.60;;;;;;;6.55;89.51;97298.46;434795;1270;142170;-65
2022/01/04 14:03:28;;;;;;;13.20;9.40;;;;;;;6.48;89.57;97258.58;429764;1271;142998;-59
2022/01/04 14:13:37;;;;;;;12.00;9.20;;;;;;;6.37;89.78;97233.04;430395;1270;208916;-70
2022/01/04 14:23:43;;;;;;;10.00;8.10;;;;;;;6.26;89.91;97223.33;434278;1270;142287;-71
2022/01/04 14:33:49;;;;;;;11.90;9.70;;;;;;;6.17;90.26;97199.11;445938;1270;142946;-63
2022/01/04 14:43:54;;;;;;;13.10;10.80;;;;;;;6.10;90.43;97178.67;435479;1272;142789;-61
2022/01/04 14:54:05;;;;;;;19.40;12.80;;;;;;;6.04;90.62;97163.02;429790;1271;142252;-67
2022/01/04 15:04:12;;;;;;;18.40;14.20;;;;;;;5.99;90.89;97145.89;446601;1272;207112;-64
2022/01/04 15:14:18;;;;;;;24.60;17.20;;;;;;;5.99;91.14;97134.90;447337;1270;143152;-67
2022/01/04 15:24:24;;;;;;;29.10;19.90;;;;;;;6.02;91.25;97130.53;446409;1270;142814;-59
2022/01/04 15:34:30;;;;;;;20.80;15.20;;;;;;;6.05;91.45;97099.04;447090;1270;141598;-59
2022/01/04 15:44:36;;;;;;;14.50;12.70;;;;;;;6.09;91.65;97091.16;447039;1270;142288;-58
2022/01/04 15:54:42;;;;;;;16.90;14.80;;;;;;;6.16;91.77;97092.70;446357;1270;142442;-59
2022/01/04 16:04:48;;;;;;;15.80;14.10;;;;;;;6.24;91.94;97069.58;445831;1270;142449;-68
2022/01/04 16:14:57;;;;;;;23.40;16.10;;;;;;;6.32;92.02;97055.52;429368;1270;141911;-67
2022/01/04 16:25:04;;;;;;;22.40;15.30;;;;;;;6.35;92.17;97039.60;445775;1270;141742;-67
2022/01/04 16:35:13;;;;;;;18.10;12.60;;;;;;;6.41;92.39;97025.56;435117;1270;142350;-66
2022/01/04 16:45:20;;;;;;;16.20;12.70;;;;;;;6.46;92.38;97017.64;446653;1270;141480;-66
2022/01/04 16:55:25;;;;;;;15.20;10.80;;;;;;;6.50;92.65;97007.38;447316;1270;140997;-67
2022/01/04 17:05:53;;;;;;;14.20;10.60;;;;;;;6.54;92.51;97000.77;444026;1270;141326;-67
2022/01/04 17:16:00;;;;;;;19.00;13.60;;;;;;;6.56;92.78;96988.26;444101;1270;141274;-67
2022/01/04 17:26:06;;;;;;;15.10;12.40;;;;;;;6.62;92.84;96985.54;447444;1270;142250;-67
2022/01/04 17:36:11;;;;;;;9.50;8.10;;;;;;;6.66;93.04;96962.89;441283;1271;143358;-66
2022/01/04 17:46:17;;;;;;;13.70;9.70;;;;;;;6.69;93.10;96964.52;442545;1269;141821;-66
2022/01/04 17:56:23;;;;;;;12.30;8.70;;;;;;;6.73;93.28;96970.59;439621;1270;141493;-66
2022/01/04 18:06:29;;;;;;;18.50;11.90;;;;;;;6.79;93.45;96964.33;445334;1270;141895;-67
2022/01/04 18:16:35;;;;;;;13.40;9.10;;;;;;;6.81;93.25;96939.85;447066;1270;143101;-67
2022/01/04 18:26:42;;;;;;;16.00;11.20;;;;;;;6.83;93.30;96939.45;443023;1271;185482;-66
2022/01/04 18:36:48;;;;;;;17.60;12.40;;;;;;;6.83;93.22;96935.48;442085;1271;143180;-60
2022/01/04 18:46:54;;;;;;;14.30;10.00;;;;;;;6.80;93.11;96937.62;443468;1271;141282;-58
2022/01/04 18:57:00;;;;;;;14.70;11.00;;;;;;;6.77;93.16;96933.27;447065;1271;141979;-58
2022/01/04 19:07:06;;;;;;;10.20;8.90;;;;;;;6.73;93.14;96930.77;446974;1271;183824;-59
2022/01/04 19:17:12;;;;;;;21.10;14.60;;;;;;;6.71;93.15;96936.83;447402;1270;142486;-59
2022/01/04 19:27:18;;;;;;;10.90;7.70;;;;;;;6.71;93.28;96941.91;446438;1271;141299;-58
2022/01/04 19:37:24;;;;;;;6.90;6.10;;;;;;;6.72;93.26;96937.14;444279;1270;141901;-59
2022/01/04 19:47:30;;;;;;;8.60;6.90;;;;;;;6.70;93.48;96953.17;429845;1271;142159;-60
2022/01/04 19:57:36;;;;;;;4.20;2.90;;;;;;;6.58;93.44;96988.06;445734;1271;141724;-59
2022/01/04 20:07:41;;;;;;;4.20;2.70;;;;;;;6.42;93.00;97005.70;447394;1271;142643;-59
2022/01/04 20:17:47;;;;;;;4.20;3.30;;;;;;;6.31;92.90;97034.25;445466;1269;140936;-59
2022/01/04 20:27:53;;;;;;;5.60;3.80;;;;;;;6.17;92.87;97061.20;432451;1271;142100;-60
2022/01/04 20:38:00;;;;;;;6.60;5.60;;;;;;;5.98;92.76;97087.98;429571;1271;142173;-58
2022/01/04 20:48:07;;;;;;;6.10;5.00;;;;;;;5.80;92.75;97114.63;444923;1271;142136;-60
2022/01/04 20:58:13;;;;;;;7.90;5.20;;;;;;;5.46;91.73;97162.90;435472;1271;140937;-58
2022/01/04 21:08:19;;;;;;;7.20;5.40;;;;;;;5.07;91.37;97165.80;431827;1271;144836;-60
2022/01/04 21:18:25;;;;;;;9.30;5.80;;;;;;;4.82;91.06;97181.61;440097;1269;145492;-59
2022/01/04 21:28:31;;;;;;;11.70;6.60;;;;;;;4.70;91.37;97205.27;447352;1270;143468;-60
2022/01/04 21:38:36;;;;;;;10.10;7.30;;;;;;;4.67;91.37;97216.13;447252;1270;143014;-58
2022/01/04 21:48:42;;;;;;;10.20;7.40;;;;;;;4.56;91.30;97231.30;446641;1271;142006;-59
2022/01/04 21:58:48;;;;;;;10.00;6.30;;;;;;;4.46;91.09;97251.45;445915;1270;142814;-59
2022/01/04 22:08:54;;;;;;;5.20;4.40;;;;;;;4.29;91.18;97277.36;430687;1271;143292;-58
2022/01/04 22:19:00;;;;;;;7.40;5.00;;;;;;;4.02;91.02;97293.37;446412;1271;141434;-59
2022/01/04 22:29:17;;;;;;;9.60;5.80;;;;;;;4.01;91.60;97321.50;447335;1271;143517;-59
2022/01/04 22:39:24;;;;;;;8.10;5.90;;;;;;;4.12;91.59;97345.44;446333;1270;141246;-59
2022/01/04 22:49:33;;;;;;;7.30;4.80;;;;;;;4.24;91.49;97359.64;439425;1270;141621;-58
2022/01/04 22:59:40;;;;;;;7.10;5.40;;;;;;;4.25;91.37;97371.73;434692;1271;141538;-58
2022/01/04 23:09:45;;;;;;;7.20;4.60;;;;;;;4.21;91.50;97377.87;446680;1271;141773;-57
2022/01/04 23:19:51;;;;;;;5.40;4.80;;;;;;;4.01;91.26;97387.09;441930;1270;142724;-59
2022/01/04 23:29:57;;;;;;;9.00;5.90;;;;;;;3.96;91.64;97402.21;444324;1269;141593;-58
2022/01/04 23:40:06;;;;;;;8.30;6.20;;;;;;;3.98;91.65;97407.91;446624;1270;143185;-58
2022/01/04 23:50:12;;;;;;;9.80;7.20;;;;;;;3.98;91.59;97401.86;446925;1271;142014;-59
